Time;durP1;ratioP1;P1;durP2;ratioP2;P2;SDS_P1;SDS_P2;PMS_P1;PMS_P2;Temp;Humidity;BMP_temperature;BMP_pressure;BME280_temperature;BME280_humidity;BME280_pressure;Samples;Min_cycle;Max_cycle;Signal;HPM_P1;HPM_P2
2024/03/15 00:00:32;;;;;;;55.90;25.60;;;;;;;10.97;39.73;100407.52;107994;1254;61023;-67
2024/03/15 00:03:01;;;;;;;62.90;25.90;;;;;;;10.63;40.27;100406.56;108060;1254;60322;-67
2024/03/15 00:05:30;;;;;;;51.60;23.40;;;;;;;10.74;40.16;100401.10;108007;1254;72946;-67
2024/03/15 00:07:57;;;;;;;58.50;27.20;;;;;;;10.90;39.96;100401.98;107941;1258;69193;-67
2024/03/15 00:10:24;;;;;;;62.10;28.00;;;;;;;11.11;39.72;100400.20;107970;1254;72678;-68
2024/03/15 00:12:52;;;;;;;65.20;28.10;;;;;;;11.13;39.67;100403.98;107963;1256;63079;-68
2024/03/15 00:15:19;;;;;;;62.30;28.40;;;;;;;11.16;39.65;100402.82;108052;1254;60521;-67
2024/03/15 00:17:47;;;;;;;70.00;31.30;;;;;;;10.99;39.96;100401.66;107946;1254;73898;-67
2024/03/15 00:20:14;;;;;;;84.80;36.90;;;;;;;10.97;40.08;100399.80;107954;1254;72389;-67
2024/03/15 00:22:42;;;;;;;82.50;34.20;;;;;;;11.06;39.97;100397.90;107921;1255;72439;-67
2024/03/15 00:25:09;;;;;;;103.60;42.40;;;;;;;11.09;39.98;100392.70;107941;1254;60447;-67
2024/03/15 00:27:38;;;;;;;108.60;41.60;;;;;;;11.00;40.25;100388.45;107934;1258;60572;-67
2024/03/15 00:30:07;;;;;;;74.30;33.90;;;;;;;10.95;40.42;100380.17;107793;1254;72367;-67
2024/03/15 00:32:34;;;;;;;95.90;38.90;;;;;;;10.99;40.36;100376.88;108002;1254;69033;-67
2024/03/15 00:35:02;;;;;;;94.20;40.90;;;;;;;10.87;40.70;100377.66;108051;1253;72633;-67
2024/03/15 00:37:29;;;;;;;96.30;40.90;;;;;;;11.00;40.56;100376.52;108038;1253;61076;-66
2024/03/15 00:39:56;;;;;;;111.70;44.80;;;;;;;11.17;40.31;100378.54;108017;1253;59055;-66
2024/03/15 00:42:24;;;;;;;86.30;38.80;;;;;;;11.02;40.58;100377.11;108032;1253;71772;-67
2024/03/15 00:44:52;;;;;;;94.10;41.50;;;;;;;11.08;40.57;100374.46;108044;1253;68868;-67
2024/03/15 00:47:19;;;;;;;101.10;42.00;;;;;;;11.21;40.43;100378.41;108031;1253;71263;-68
2024/03/15 00:49:47;;;;;;;81.90;36.80;;;;;;;11.21;40.53;100379.45;107999;1253;60388;-67
2024/03/15 00:52:14;;;;;;;74.60;35.00;;;;;;;11.18;40.62;100378.52;108036;1253;60084;-66
2024/03/15 00:54:42;;;;;;;74.10;33.00;;;;;;;11.15;40.85;100377.38;108039;1253;73787;-67
2024/03/15 00:57:09;;;;;;;77.30;34.20;;;;;;;11.18;40.90;100371.65;108028;1253;69137;-67
2024/03/15 00:59:37;;;;;;;62.90;31.30;;;;;;;11.17;40.90;100372.94;107935;1253;71441;-67
2024/03/15 01:02:05;;;;;;;64.10;27.90;;;;;;;11.13;41.03;100374.47;108023;1253;60362;-66
2024/03/15 01:04:32;;;;;;;75.70;33.30;;;;;;;11.26;40.91;100373.30;108014;1253;59865;-66
2024/03/15 01:06:59;;;;;;;78.70;32.40;;;;;;;11.35;40.80;100373.18;108085;1253;73808;-67
2024/03/15 01:09:27;;;;;;;88.40;35.10;;;;;;;11.32;40.97;100373.25;108073;1253;70104;-66
2024/03/15 01:11:54;;;;;;;87.90;34.50;;;;;;;11.36;41.13;100369.08;108057;1253;72459;-67
2024/03/15 01:14:21;;;;;;;94.70;37.30;;;;;;;11.47;41.07;100371.48;108096;1254;60655;-67
2024/03/15 01:16:49;;;;;;;86.00;33.80;;;;;;;11.54;41.11;100370.51;108071;1253;60425;-68
2024/03/15 01:19:16;;;;;;;98.50;39.20;;;;;;;11.32;41.60;100375.04;107974;1253;73884;-67
2024/03/15 01:21:44;;;;;;;173.20;75.80;;;;;;;11.07;42.14;100380.83;108133;1253;68912;-67
2024/03/15 01:24:12;;;;;;;80.30;36.10;;;;;;;11.03;42.40;100380.79;108062;1254;72802;-67
2024/03/15 01:26:40;;;;;;;105.40;40.60;;;;;;;11.14;42.43;100379.73;108094;1257;60518;-67
2024/03/15 01:29:08;;;;;;;99.00;37.00;;;;;;;11.18;42.35;100382.20;108099;1253;60360;-67
2024/03/15 01:31:38;;;;;;;73.30;29.40;;;;;;;11.24;42.34;100386.04;108064;1253;73822;-67
2024/03/15 01:34:05;;;;;;;54.70;27.50;;;;;;;11.19;42.67;100386.55;108111;1253;69451;-67
2024/03/15 01:36:33;;;;;;;63.80;29.80;;;;;;;11.22;42.59;100385.77;108066;1253;72659;-67
2024/03/15 01:39:00;;;;;;;66.90;30.20;;;;;;;10.90;43.26;100388.98;107976;1253;61070;-67
2024/03/15 01:41:27;;;;;;;59.30;29.30;;;;;;;10.92;43.35;100391.01;108080;1253;60994;-67
2024/03/15 01:43:55;;;;;;;58.70;29.60;;;;;;;10.89;43.58;100391.65;108139;1253;72577;-67
2024/03/15 01:46:23;;;;;;;62.30;31.10;;;;;;;10.96;43.50;100390.36;108085;1253;68972;-67
2024/03/15 01:48:52;;;;;;;67.30;30.00;;;;;;;10.99;43.61;100392.69;107976;1253;70580;-67
2024/03/15 01:51:20;;;;;;;60.90;30.30;;;;;;;10.94;43.83;100393.96;108116;1253;60814;-67
2024/03/15 01:53:47;;;;;;;74.60;33.20;;;;;;;10.82;44.07;100391.70;108068;1253;60270;-67
2024/03/15 01:56:15;;;;;;;70.00;32.50;;;;;;;10.78;44.21;100397.11;108122;1253;73929;-67
2024/03/15 01:58:42;;;;;;;70.00;31.30;;;;;;;10.83;44.18;100392.73;108078;1253;69950;-67
2024/03/15 02:01:11;;;;;;;68.60;32.50;;;;;;;10.92;44.23;100394.70;108067;1253;72734;-67
2024/03/15 02:03:39;;;;;;;65.20;31.20;;;;;;;11.02;44.08;100396.12;108071;1253;60379;-68
2024/03/15 02:06:08;;;;;;;67.40;32.00;;;;;;;11.06;44.12;100395.80;108048;1253;60453;-67
2024/03/15 02:08:36;;;;;;;92.30;39.30;;;;;;;11.22;43.96;100394.02;107996;1253;73030;-67
2024/03/15 02:11:03;;;;;;;161.10;70.20;;;;;;;11.27;43.82;100395.97;108059;1253;70537;-67
2024/03/15 02:13:31;;;;;;;165.70;48.60;;;;;;;11.32;43.79;100396.27;108020;1253;71846;-68
2024/03/15 02:15:58;;;;;;;84.70;37.30;;;;;;;11.31;43.80;100397.90;107999;1253;61567;-67
2024/03/15 02:18:25;;;;;;;68.30;32.30;;;;;;;11.04;44.41;100408.34;108077;1253;60913;-66
2024/03/15 02:20:53;;;;;;;65.10;32.00;;;;;;;10.96;44.52;100411.27;108059;1253;73861;-67
2024/03/15 02:23:20;;;;;;;79.40;35.60;;;;;;;10.91;44.71;100409.67;108064;1253;69998;-67
2024/03/15 02:25:47;;;;;;;73.10;34.70;;;;;;;10.77;45.15;100412.27;108059;1253;71485;-67
2024/03/15 02:28:15;;;;;;;73.30;33.80;;;;;;;11.03;44.81;100412.75;108049;1253;61070;-67
2024/03/15 02:30:45;;;;;;;62.40;32.40;;;;;;;11.00;44.83;100414.61;108076;1253;61094;-62
2024/03/15 02:33:12;;;;;;;65.70;33.90;;;;;;;11.09;44.95;100415.89;108117;1253;73485;-65
2024/03/15 02:35:40;;;;;;;62.70;34.00;;;;;;;11.12;44.87;100418.41;108095;1253;70161;-68
2024/03/15 02:38:08;;;;;;;67.10;34.00;;;;;;;11.07;45.09;100418.41;108094;1254;72752;-67
2024/03/15 02:40:35;;;;;;;71.50;37.30;;;;;;;11.02;45.26;100415.08;108010;1253;61455;-67
2024/03/15 02:43:02;;;;;;;73.70;38.90;;;;;;;10.93;45.39;100415.58;108047;1253;61343;-67
2024/03/15 02:45:30;;;;;;;74.70;38.50;;;;;;;10.95;45.47;100417.97;107997;1253;74659;-67
2024/03/15 02:47:58;;;;;;;66.00;35.30;;;;;;;10.81;45.92;100420.18;108054;1257;68837;-67
2024/03/15 02:50:25;;;;;;;68.00;35.50;;;;;;;10.62;46.30;100420.46;108015;1253;71732;-67
2024/03/15 02:52:53;;;;;;;63.90;36.00;;;;;;;10.57;46.66;100422.71;108034;1253;61114;-66
2024/03/15 02:55:20;;;;;;;64.80;34.70;;;;;;;10.75;46.45;100419.33;108027;1253;61094;-67
2024/03/15 02:57:47;;;;;;;58.90;31.60;;;;;;;11.07;45.79;100413.52;107961;1253;74726;-67
2024/03/15 03:00:15;;;;;;;65.00;33.90;;;;;;;11.07;45.58;100414.23;108099;1253;71212;-67
2024/03/15 03:02:42;;;;;;;66.50;34.10;;;;;;;11.08;45.56;100413.48;108004;1254;71412;-67
2024/03/15 03:05:12;;;;;;;68.50;34.30;;;;;;;11.14;45.52;100419.23;108055;1257;61240;-67
2024/03/15 03:07:39;;;;;;;81.80;47.50;;;;;;;10.92;45.93;100416.83;108065;1253;60981;-66
2024/03/15 03:10:07;;;;;;;82.40;39.00;;;;;;;10.89;46.07;100416.75;108034;1257;73448;-67
2024/03/15 03:12:35;;;;;;;92.50;39.90;;;;;;;10.87;46.16;100415.94;108051;1256;70309;-67
2024/03/15 03:15:04;;;;;;;73.20;37.10;;;;;;;10.98;46.05;100416.64;108045;1253;71543;-66
2024/03/15 03:17:32;;;;;;;72.80;36.10;;;;;;;11.06;45.91;100422.67;108097;1253;61340;-67
2024/03/15 03:19:59;;;;;;;75.10;38.90;;;;;;;11.28;45.43;100418.42;108097;1252;62224;-67
2024/03/15 03:22:26;;;;;;;77.60;37.40;;;;;;;11.16;45.77;100420.41;108134;1253;74111;-67
2024/03/15 03:24:54;;;;;;;73.90;37.10;;;;;;;11.02;45.96;100422.45;108080;1257;68978;-67
2024/03/15 03:27:21;;;;;;;74.60;38.30;;;;;;;10.96;46.10;100423.38;108091;1253;72710;-66
2024/03/15 03:29:49;;;;;;;68.10;35.20;;;;;;;11.24;45.72;100422.22;108133;1252;60862;-67
2024/03/15 03:32:16;;;;;;;68.20;35.50;;;;;;;11.07;45.94;100423.35;108127;1253;61189;-67
2024/03/15 03:34:43;;;;;;;74.70;37.40;;;;;;;10.84;46.50;100425.88;108101;1253;73371;-67
2024/03/15 03:37:12;;;;;;;76.10;37.60;;;;;;;11.19;45.89;100414.67;108036;1253;67809;-67
2024/03/15 03:39:40;;;;;;;66.20;35.80;;;;;;;11.12;45.82;100423.54;108029;1253;71207;-68
2024/03/15 03:42:07;;;;;;;70.70;37.60;;;;;;;11.04;46.18;100424.34;108034;1258;61366;-67
2024/03/15 03:44:36;;;;;;;70.30;37.50;;;;;;;11.04;46.16;100428.37;108029;1253;61157;-68
2024/03/15 03:47:04;;;;;;;65.80;35.20;;;;;;;11.13;46.11;100434.23;108077;1253;74591;-67
2024/03/15 03:49:31;;;;;;;71.20;36.00;;;;;;;11.26;45.86;100433.76;108098;1253;68204;-68
2024/03/15 03:51:58;;;;;;;68.30;36.40;;;;;;;11.17;45.92;100435.11;108055;1255;72746;-67
2024/03/15 03:54:26;;;;;;;79.10;43.90;;;;;;;11.03;46.21;100438.77;108024;1253;60859;-68
2024/03/15 03:56:53;;;;;;;100.30;53.70;;;;;;;11.01;46.34;100441.11;107986;1253;61243;-67
2024/03/15 03:59:21;;;;;;;80.80;39.80;;;;;;;10.90;46.49;100443.60;108002;1255;73361;-67
2024/03/15 04:01:48;;;;;;;65.50;35.10;;;;;;;10.86;46.81;100448.29;108034;1252;70317;-67
2024/03/15 04:04:16;;;;;;;83.10;41.30;;;;;;;10.98;46.58;100445.95;108132;1253;71509;-67
2024/03/15 04:06:49;;;;;;;67.40;37.70;;;;;;;11.00;46.42;100448.89;108040;1255;61274;-66
2024/03/15 04:09:18;;;;;;;79.30;38.90;;;;;;;10.91;46.64;100451.11;108178;1251;61224;-67
2024/03/15 04:11:47;;;;;;;75.50;36.90;;;;;;;10.93;46.66;100450.34;108173;1253;73611;-67
2024/03/15 04:14:15;;;;;;;72.40;36.00;;;;;;;10.92;46.74;100449.87;108262;1253;70585;-67
2024/03/15 04:16:45;;;;;;;66.70;37.40;;;;;;;10.95;46.65;100444.84;108174;1253;71443;-66
2024/03/15 04:19:13;;;;;;;73.00;37.80;;;;;;;11.02;46.51;100446.01;108174;1253;59924;-67
2024/03/15 04:21:42;;;;;;;76.00;39.00;;;;;;;11.11;46.31;100443.07;108169;1251;61105;-66
2024/03/15 04:24:11;;;;;;;82.90;42.90;;;;;;;11.17;46.18;100444.27;108136;1252;73428;-67
2024/03/15 04:26:39;;;;;;;75.70;40.30;;;;;;;11.12;46.28;100441.63;108166;1257;72198;-68
2024/03/15 04:29:07;;;;;;;77.10;42.30;;;;;;;11.15;46.31;100444.52;108153;1251;71972;-67
2024/03/15 04:31:34;;;;;;;85.80;43.30;;;;;;;11.24;46.05;100446.33;108160;1251;61350;-68
2024/03/15 04:34:01;;;;;;;72.70;39.90;;;;;;;11.07;46.39;100444.95;108189;1251;61080;-67
2024/03/15 04:36:30;;;;;;;84.30;42.70;;;;;;;11.01;46.44;100449.56;108187;1257;74634;-67
2024/03/15 04:38:59;;;;;;;83.40;41.60;;;;;;;11.12;46.30;100450.08;108184;1251;69969;-67
2024/03/15 04:41:26;;;;;;;71.70;39.00;;;;;;;11.04;46.37;100452.27;108129;1253;71436;-68
2024/03/15 04:43:54;;;;;;;73.90;40.60;;;;;;;11.02;46.43;100454.09;108155;1253;61302;-67
2024/03/15 04:46:21;;;;;;;73.60;38.70;;;;;;;11.00;46.57;100451.35;108163;1252;61098;-68
2024/03/15 04:48:49;;;;;;;72.40;38.60;;;;;;;10.85;46.87;100452.55;108189;1257;73441;-67
2024/03/15 04:51:17;;;;;;;79.50;38.60;;;;;;;10.94;46.82;100454.89;108231;1251;70633;-67
2024/03/15 04:53:45;;;;;;;74.20;38.40;;;;;;;10.89;46.93;100449.42;108144;1253;71616;-68
2024/03/15 04:56:13;;;;;;;79.10;42.50;;;;;;;10.88;46.93;100456.84;108146;1253;61121;-67
2024/03/15 04:58:41;;;;;;;86.20;42.00;;;;;;;10.94;46.88;100461.56;108162;1257;61157;-67
2024/03/15 05:01:08;;;;;;;78.00;42.00;;;;;;;10.92;46.85;100461.10;108207;1251;72545;-67
2024/03/15 05:03:36;;;;;;;77.10;41.30;;;;;;;10.88;46.99;100464.41;108088;1251;70418;-67
2024/03/15 05:06:04;;;;;;;78.20;41.00;;;;;;;10.89;47.17;100468.56;108125;1251;72653;-67
2024/03/15 05:08:39;;;;;;;83.40;41.90;;;;;;;11.10;46.75;100468.42;108141;1251;61079;-67
2024/03/15 05:11:07;;;;;;;84.00;40.60;;;;;;;11.24;46.46;100474.77;108167;1253;61374;-67
2024/03/15 05:13:35;;;;;;;86.50;40.10;;;;;;;10.92;47.19;100479.55;108108;1252;74618;-67
2024/03/15 05:16:03;;;;;;;78.70;40.20;;;;;;;10.98;47.05;100480.76;108120;1251;70863;-67
2024/03/15 05:18:31;;;;;;;73.40;36.40;;;;;;;10.95;47.08;100480.86;108125;1253;71388;-67
2024/03/15 05:20:58;;;;;;;80.50;40.60;;;;;;;11.02;46.96;100480.44;108175;1251;61136;-68
2024/03/15 05:23:25;;;;;;;79.80;39.80;;;;;;;11.01;46.95;100484.52;108151;1251;61104;-67
2024/03/15 05:25:54;;;;;;;80.70;38.10;;;;;;;10.97;47.10;100488.70;108195;1254;74633;-67
2024/03/15 05:28:22;;;;;;;80.60;40.60;;;;;;;10.94;47.11;100492.67;108237;1252;69088;-67
2024/03/15 05:30:49;;;;;;;73.40;38.80;;;;;;;11.01;47.09;100497.86;108214;1252;72125;-67
2024/03/15 05:33:17;;;;;;;74.40;38.20;;;;;;;11.09;46.96;100500.42;108156;1253;61221;-67
2024/03/15 05:35:44;;;;;;;80.10;38.20;;;;;;;11.21;46.76;100501.59;108151;1253;61262;-67
2024/03/15 05:38:12;;;;;;;80.30;40.30;;;;;;;11.21;46.86;100508.65;108042;1252;74765;-67
2024/03/15 05:40:39;;;;;;;81.10;39.20;;;;;;;11.24;46.85;100507.65;108040;1258;70623;-67
2024/03/15 05:43:06;;;;;;;85.20;41.20;;;;;;;11.20;46.88;100503.73;108021;1253;71411;-67
2024/03/15 05:45:34;;;;;;;77.20;38.70;;;;;;;11.26;46.95;100507.93;108027;1253;61227;-67
2024/03/15 05:48:01;;;;;;;80.70;42.80;;;;;;;11.24;47.19;100508.18;108151;1252;61381;-67
2024/03/15 05:50:30;;;;;;;81.30;41.80;;;;;;;11.17;47.49;100510.54;108121;1253;74537;-67
2024/03/15 05:53:00;;;;;;;88.20;44.10;;;;;;;11.10;47.61;100507.92;107976;1253;69249;-67
2024/03/15 05:55:27;;;;;;;92.20;41.80;;;;;;;10.94;47.98;100509.51;108018;1253;72991;-67
2024/03/15 05:57:54;;;;;;;80.80;42.70;;;;;;;10.99;48.03;100504.26;108058;1253;61167;-67
2024/03/15 06:00:23;;;;;;;87.30;41.60;;;;;;;10.93;48.24;100504.62;108094;1253;61149;-67
2024/03/15 06:02:51;;;;;;;85.20;41.90;;;;;;;10.96;48.23;100507.70;108047;1258;75031;-67
2024/03/15 06:05:19;;;;;;;84.40;41.10;;;;;;;11.07;48.19;100504.15;108037;1258;70855;-67
2024/03/15 06:07:47;;;;;;;88.40;43.20;;;;;;;11.18;48.30;100504.54;107983;1255;72482;-67
2024/03/15 06:10:19;;;;;;;60.00;33.30;;;;;;;11.21;48.43;100505.63;108034;1253;61157;-67
2024/03/15 06:12:47;;;;;;;77.50;37.50;;;;;;;11.44;47.82;100503.64;107996;1252;60999;-67
2024/03/15 06:15:15;;;;;;;80.50;40.00;;;;;;;11.73;47.43;100502.27;107958;1260;74600;-67
2024/03/15 06:17:42;;;;;;;87.30;40.70;;;;;;;11.68;47.48;100501.05;108076;1253;70684;-67
2024/03/15 06:20:10;;;;;;;84.00;42.00;;;;;;;11.68;47.63;100503.66;107953;1253;73120;-67
2024/03/15 06:22:38;;;;;;;88.90;41.50;;;;;;;11.84;47.73;100502.23;107959;1252;60774;-68
2024/03/15 06:25:06;;;;;;;89.50;40.90;;;;;;;11.87;47.76;100503.01;108015;1253;61108;-66
2024/03/15 06:27:33;;;;;;;91.80;44.30;;;;;;;11.83;47.79;100506.83;107986;1253;74769;-67
2024/03/15 06:30:03;;;;;;;85.80;41.50;;;;;;;11.93;47.73;100506.48;108186;1253;70837;-67
2024/03/15 06:32:36;;;;;;;86.60;44.40;;;;;;;11.87;47.81;100504.04;108092;1253;71623;-67
2024/03/15 06:35:18;;;;;;;86.10;42.90;;;;;;;11.87;47.62;100507.41;108031;1253;62852;-67
2024/03/15 06:37:46;;;;;;;97.70;43.60;;;;;;;12.00;47.22;100508.52;108025;1253;61040;-67
2024/03/15 06:40:20;;;;;;;94.20;44.80;;;;;;;12.15;47.04;100512.02;108063;1251;74974;-67
2024/03/15 06:48:32;;;;;;;94.10;44.40;;;;;;;12.52;46.41;100513.10;108025;1256;61145;-67
2024/03/15 06:52:31;;;;;;;90.20;45.00;;;;;;;12.55;46.33;100518.59;107966;1253;61458;-67
2024/03/15 06:53:48;;;;;;;90.90;42.90;;;;;;;12.55;46.54;100516.84;108001;1253;73660;-67
2024/03/15 06:56:15;;;;;;;92.40;44.50;;;;;;;12.45;46.64;100517.91;108034;1258;70919;-66
2024/03/15 06:58:43;;;;;;;85.50;44.30;;;;;;;12.65;46.41;100511.35;108001;1254;71488;-66
2024/03/15 07:01:13;;;;;;;85.90;41.60;;;;;;;12.76;46.41;100511.95;108056;1256;61383;-67
2024/03/15 07:03:41;;;;;;;82.10;40.20;;;;;;;12.79;46.04;100512.35;108036;1252;61067;-67
2024/03/15 07:06:09;;;;;;;79.10;36.70;;;;;;;12.69;46.11;100513.64;108048;1253;75727;-67
2024/03/15 07:08:37;;;;;;;88.90;42.30;;;;;;;12.68;46.12;100515.10;108006;1253;72589;-67
2024/03/15 07:11:05;;;;;;;95.80;44.40;;;;;;;12.68;46.09;100520.37;108005;1252;70769;-67
2024/03/15 07:13:32;;;;;;;80.70;39.90;;;;;;;12.80;46.15;100516.21;107994;1253;62925;-67
2024/03/15 07:16:00;;;;;;;96.30;43.70;;;;;;;12.94;46.08;100518.43;108015;1253;62044;-66
2024/03/15 07:18:28;;;;;;;88.60;42.10;;;;;;;13.01;45.90;100519.23;108008;1253;74903;-67
2024/03/15 07:20:56;;;;;;;95.20;43.80;;;;;;;13.00;45.75;100516.09;108036;1253;71668;-67
2024/03/15 07:23:25;;;;;;;79.10;41.60;;;;;;;13.09;45.50;100518.73;107918;1256;74819;-67
2024/03/15 07:25:53;;;;;;;88.00;43.20;;;;;;;13.09;45.23;100513.42;108014;1253;61611;-67
2024/03/15 07:28:21;;;;;;;87.70;43.00;;;;;;;13.20;45.32;100513.48;107996;1252;61295;-65
2024/03/15 07:30:49;;;;;;;86.10;41.50;;;;;;;13.34;45.33;100515.08;108063;1253;73483;-67
2024/03/15 07:33:17;;;;;;;84.70;41.80;;;;;;;13.35;45.45;100514.86;107967;1253;69153;-67
2024/03/15 07:35:48;;;;;;;85.50;40.30;;;;;;;13.58;44.73;100519.88;108023;1258;75115;-68
2024/03/15 07:38:17;;;;;;;59.90;29.70;;;;;;;13.62;44.37;100523.73;107998;1253;63061;-68
2024/03/15 07:40:44;;;;;;;72.50;38.90;;;;;;;13.80;44.11;100520.66;108022;1253;61106;-68
2024/03/15 07:43:12;;;;;;;83.50;41.20;;;;;;;13.83;44.02;100520.34;108017;1253;73573;-67
2024/03/15 07:45:39;;;;;;;71.50;38.90;;;;;;;14.07;43.77;100517.89;107939;1253;72683;-67
2024/03/15 07:48:07;;;;;;;70.60;37.80;;;;;;;14.37;43.49;100520.06;107914;1253;73496;-67
2024/03/15 07:50:36;;;;;;;70.80;37.30;;;;;;;14.69;43.06;100516.83;107964;1253;61261;-69
2024/03/15 07:53:08;;;;;;;72.00;37.00;;;;;;;14.81;42.75;100512.17;107973;1252;61853;-67
2024/03/15 07:55:35;;;;;;;70.90;36.90;;;;;;;15.20;41.91;100509.54;107935;1253;74829;-68
2024/03/15 07:58:03;;;;;;;71.80;34.70;;;;;;;15.72;40.76;100504.92;108031;1253;70530;-68
2024/03/15 08:00:31;;;;;;;70.70;35.00;;;;;;;16.04;39.74;100507.15;108137;1254;73146;-67
2024/03/15 08:03:00;;;;;;;68.10;36.30;;;;;;;16.24;38.82;100508.05;108014;1253;61144;-68
2024/03/15 08:05:28;;;;;;;64.60;35.00;;;;;;;16.41;38.97;100501.05;108008;1253;61080;-68
2024/03/15 08:07:57;;;;;;;72.90;36.70;;;;;;;16.77;38.06;100505.64;107993;1253;74958;-68
2024/03/15 08:10:25;;;;;;;62.50;33.30;;;;;;;17.28;37.21;100501.09;108022;1253;70664;-68
2024/03/15 08:12:54;;;;;;;58.80;32.70;;;;;;;17.53;36.43;100500.70;108132;1253;71807;-69
2024/03/15 08:15:23;;;;;;;74.90;36.00;;;;;;;17.67;36.27;100494.85;108002;1253;63884;-68
2024/03/15 08:17:53;;;;;;;61.60;31.60;;;;;;;17.73;35.96;100495.38;107982;1253;61087;-68
2024/03/15 08:20:20;;;;;;;63.40;32.30;;;;;;;17.46;36.11;100493.11;108027;1253;75170;-69
2024/03/15 08:22:47;;;;;;;93.60;38.60;;;;;;;17.13;36.56;100496.13;107999;1253;72264;-68
2024/03/15 08:25:15;;;;;;;69.80;34.90;;;;;;;17.08;36.66;100496.23;108000;1253;72735;-66
2024/03/15 08:27:44;;;;;;;113.80;44.70;;;;;;;17.05;36.74;100499.23;107926;1253;60623;-68
2024/03/15 08:30:16;;;;;;;68.70;35.40;;;;;;;17.14;36.68;100496.09;107974;1253;61139;-68
2024/03/15 08:32:44;;;;;;;100.70;48.40;;;;;;;16.91;36.91;100500.02;107961;1253;74151;-68
2024/03/15 08:35:14;;;;;;;72.80;37.30;;;;;;;17.01;36.83;100504.10;107949;1253;69860;-68
2024/03/15 08:37:44;;;;;;;73.30;37.80;;;;;;;17.08;36.84;100500.00;107948;1253;72959;-68
2024/03/15 08:40:16;;;;;;;71.20;35.30;;;;;;;17.16;36.71;100501.26;107950;1253;61970;-68
2024/03/15 08:42:45;;;;;;;70.60;35.10;;;;;;;17.06;36.75;100505.21;107992;1253;61136;-68
2024/03/15 08:45:14;;;;;;;91.40;40.40;;;;;;;16.81;36.99;100506.67;107975;1258;74838;-68
2024/03/15 08:47:43;;;;;;;71.90;36.00;;;;;;;16.65;37.30;100510.90;107995;1253;72607;-67
2024/03/15 08:50:32;;;;;;;66.30;34.30;;;;;;;16.50;37.58;100510.86;107971;1253;75004;-67
2024/03/15 08:53:03;;;;;;;70.80;34.30;;;;;;;16.31;37.69;100507.09;107960;1253;62754;-67
2024/03/15 08:55:31;;;;;;;62.70;34.50;;;;;;;16.13;38.04;100509.14;107956;1253;61130;-68
2024/03/15 08:57:59;;;;;;;72.20;35.60;;;;;;;15.96;38.49;100508.11;107921;1253;74918;-68
2024/03/15 09:00:27;;;;;;;66.90;35.30;;;;;;;15.83;38.73;100505.98;107942;1253;70551;-67
2024/03/15 09:02:55;;;;;;;70.70;35.20;;;;;;;15.88;38.77;100507.14;107968;1254;73664;-67
2024/03/15 09:05:22;;;;;;;71.50;36.50;;;;;;;15.82;38.91;100501.59;107987;1253;61292;-67
2024/03/15 09:07:50;;;;;;;64.00;35.40;;;;;;;16.05;38.84;100498.96;107997;1253;61219;-67
2024/03/15 09:10:18;;;;;;;121.70;60.20;;;;;;;16.00;38.98;100499.58;107939;1253;75008;-67
2024/03/15 09:12:45;;;;;;;70.80;37.60;;;;;;;15.95;38.85;100498.80;108012;1253;71596;-67
2024/03/15 09:15:14;;;;;;;72.70;36.60;;;;;;;15.99;38.78;100496.10;108082;1254;72537;-67
2024/03/15 09:17:41;;;;;;;71.70;37.60;;;;;;;15.99;38.90;100492.75;108026;1256;61209;-67
2024/03/15 09:20:18;;;;;;;77.00;37.80;;;;;;;15.96;39.19;100491.80;108023;1253;61087;-67
2024/03/15 09:22:50;;;;;;;74.40;38.00;;;;;;;16.03;39.06;100492.66;108017;1253;74434;-67
2024/03/15 09:25:23;;;;;;;;;;;;;;;16.17;38.98;100493.36;108027;1253;71408;-67
2024/03/15 09:27:53;;;;;;;66.20;35.50;;;;;;;16.40;38.59;100492.61;107992;1256;74563;-67
2024/03/15 09:30:36;;;;;;;72.60;35.10;;;;;;;16.36;38.60;100494.41;107955;1253;61134;-68
2024/03/15 09:33:11;;;;;;;68.90;34.80;;;;;;;16.40;38.55;100495.09;107974;1259;61393;-67
2024/03/15 09:35:44;;;;;;;71.80;35.40;;;;;;;16.56;38.26;100492.23;107867;1254;75008;-67
2024/03/15 09:38:15;;;;;;;71.30;36.70;;;;;;;16.59;38.23;100493.34;108000;1258;70408;-67
2024/03/15 09:40:42;;;;;;;73.10;36.60;;;;;;;16.43;38.39;100496.35;107975;1253;72233;-67
2024/03/15 09:43:14;;;;;;;73.50;36.40;;;;;;;16.34;38.47;100494.73;107940;1253;61095;-67
2024/03/15 09:45:41;;;;;;;80.90;37.80;;;;;;;16.29;38.55;100495.90;108002;1253;61062;-68
2024/03/15 09:48:10;;;;;;;74.90;35.40;;;;;;;16.25;38.47;100490.96;108059;1258;75030;-67
2024/03/15 09:50:39;;;;;;;64.40;35.10;;;;;;;16.30;38.36;100488.92;107994;1253;69215;-67
2024/03/15 09:53:08;;;;;;;69.10;35.40;;;;;;;16.12;38.75;100490.58;107971;1255;71990;-67
2024/03/15 09:55:36;;;;;;;73.40;36.60;;;;;;;16.17;38.40;100489.63;107984;1253;62886;-67
2024/03/15 09:58:04;;;;;;;61.70;32.00;;;;;;;16.17;38.40;100488.39;107978;1254;61428;-67
2024/03/15 10:00:31;;;;;;;67.50;36.30;;;;;;;15.92;38.63;100488.48;107703;1253;75074;-68
2024/03/15 10:02:59;;;;;;;71.00;35.90;;;;;;;15.93;38.97;100489.85;108036;1258;68849;-68
2024/03/15 10:05:28;;;;;;;74.40;36.60;;;;;;;16.00;38.99;100489.68;108007;1253;72879;-67
2024/03/15 10:07:56;;;;;;;75.50;37.60;;;;;;;15.99;38.96;100485.63;107997;1259;61833;-67
2024/03/15 10:10:24;;;;;;;63.90;34.90;;;;;;;15.90;39.14;100487.36;108036;1253;61275;-68
2024/03/15 10:12:51;;;;;;;71.20;36.00;;;;;;;15.81;39.26;100490.15;107901;1260;75918;-68
2024/03/15 10:15:23;;;;;;;75.50;36.00;;;;;;;16.00;38.96;100488.60;108006;1253;70655;-67
2024/03/15 10:17:52;;;;;;;72.20;37.00;;;;;;;16.09;38.86;100487.21;107967;1253;73727;-67
2024/03/15 10:20:21;;;;;;;82.20;38.80;;;;;;;16.12;38.85;100482.77;108035;1253;62472;-67
2024/03/15 10:22:56;;;;;;;66.70;35.10;;;;;;;16.15;38.65;100487.25;108202;1256;61143;-68
2024/03/15 10:25:25;;;;;;;70.60;34.00;;;;;;;16.15;38.36;100487.80;108005;1253;73571;-67
2024/03/15 10:27:56;;;;;;;69.00;36.00;;;;;;;16.10;38.47;100488.02;107972;1253;72526;-67
2024/03/15 10:30:29;;;;;;;78.00;38.10;;;;;;;16.01;38.78;100488.15;107993;1255;72318;-67
2024/03/15 10:35:02;;;;;;;73.60;38.20;;;;;;;15.13;40.89;100481.14;104942;1289;600614;-67
2024/03/15 10:37:30;;;;;;;71.80;38.00;;;;;;;16.39;38.37;100482.58;107281;1264;60695;-67
2024/03/15 10:39:57;;;;;;;80.80;37.40;;;;;;;16.54;38.18;100484.91;107348;1264;60973;-67
2024/03/15 10:42:25;;;;;;;72.40;37.00;;;;;;;16.51;38.34;100484.20;107316;1264;74184;-67
2024/03/15 10:44:53;;;;;;;90.50;41.40;;;;;;;16.59;38.30;100482.14;107323;1264;70570;-68
2024/03/15 10:47:21;;;;;;;116.80;56.10;;;;;;;16.56;38.22;100485.70;107351;1269;72716;-67
2024/03/15 10:49:50;;;;;;;70.20;38.50;;;;;;;16.51;38.26;100479.58;107320;1263;189560;-67
2024/03/15 10:52:18;;;;;;;68.90;37.30;;;;;;;16.52;38.12;100478.29;107496;1264;62369;-68
2024/03/15 10:54:45;;;;;;;71.30;37.50;;;;;;;16.60;38.19;100475.73;107360;1264;74952;-67
2024/03/15 10:57:13;;;;;;;60.10;33.60;;;;;;;16.59;38.01;100475.42;107396;1266;70822;-67
2024/03/15 10:59:42;;;;;;;72.70;35.90;;;;;;;16.63;37.83;100474.49;107387;1267;73060;-68
2024/03/15 11:02:10;;;;;;;60.10;33.80;;;;;;;16.75;37.67;100471.70;107706;1254;60329;-67
2024/03/15 11:04:38;;;;;;;67.80;35.80;;;;;;;16.82;37.46;100472.00;107915;1260;60529;-68
2024/03/15 11:07:06;;;;;;;65.50;36.20;;;;;;;16.92;37.46;100469.50;107814;1254;74312;-67
2024/03/15 11:09:36;;;;;;;61.50;32.80;;;;;;;17.15;37.47;100465.82;107877;1254;72305;-68
2024/03/15 11:12:04;;;;;;;58.30;34.20;;;;;;;17.35;36.98;100467.33;107653;1255;73276;-67
2024/03/15 11:14:34;;;;;;;74.30;37.30;;;;;;;17.38;36.97;100468.40;107908;1254;61369;-68